createdAt,value
2022-11-29T00:01:41.032Z,26.40
2022-11-29T00:04:09.359Z,43.30
2022-11-29T00:06:38.402Z,15.50
2022-11-29T00:09:11.795Z,24.80
2022-11-29T00:12:00.276Z,19.60
2022-11-29T00:14:29.307Z,27.80
2022-11-29T00:17:02.219Z,22.30
2022-11-29T00:19:33.210Z,16.80
2022-11-29T00:22:02.589Z,22.50
2022-11-29T00:24:32.690Z,27.10
2022-11-29T00:27:01.243Z,44.80
2022-11-29T00:29:30.308Z,48.50
2022-11-29T00:31:59.045Z,45.90
2022-11-29T00:34:27.179Z,28.40
2022-11-29T00:36:55.136Z,54.50
2022-11-29T00:39:23.640Z,48.10
2022-11-29T00:41:51.882Z,24.60
2022-11-29T00:44:20.727Z,13.40
2022-11-29T00:46:50.164Z,43.60
2022-11-29T00:49:18.634Z,44.90
2022-11-29T00:51:47.013Z,31.10
2022-11-29T00:54:15.316Z,32.40
2022-11-29T00:56:44.342Z,22.50
2022-11-29T00:59:12.481Z,26.50
2022-11-29T01:01:40.634Z,39.30
2022-11-29T01:04:08.914Z,28.70
2022-11-29T01:06:37.326Z,16.00
2022-11-29T01:09:06.015Z,22.10
2022-11-29T01:11:35.451Z,26.90
2022-11-29T01:14:04.385Z,12.00
2022-11-29T01:16:32.974Z,19.70
2022-11-29T01:19:01.359Z,18.00
2022-11-29T01:21:29.885Z,11.90
2022-11-29T01:24:01.791Z,40.60
2022-11-29T01:26:30.797Z,41.60
2022-11-29T01:28:59.382Z,67.60
2022-11-29T01:31:36.432Z,56.50
2022-11-29T01:34:06.262Z,50.50
2022-11-29T01:36:35.497Z,54.40
2022-11-29T01:39:06.070Z,46.40
2022-11-29T01:41:36.633Z,54.70
2022-11-29T01:44:26.893Z,111.40
2022-11-29T01:46:56.119Z,21.40
2022-11-29T01:49:29.756Z,18.80
2022-11-29T01:52:13.427Z,48.60
2022-11-29T01:54:47.301Z,55.10
2022-11-29T01:57:17.287Z,56.10
2022-11-29T01:59:54.890Z,50.30
2022-11-29T02:03:01.960Z,56.50
2022-11-29T02:05:30.274Z,48.10
2022-11-29T02:07:59.279Z,65.30
2022-11-29T02:10:49.218Z,55.90
2022-11-29T02:13:26.201Z,49.90
2022-11-29T02:16:04.071Z,64.40
2022-11-29T02:19:13.226Z,38.20
2022-11-29T02:21:57.407Z,18.90
2022-11-29T02:24:48.500Z,63.60
2022-11-29T02:27:40.611Z,55.50
2022-11-29T02:30:26.699Z,59.20
2022-11-29T02:33:29.599Z,44.50
2022-11-29T02:36:16.279Z,55.30
2022-11-29T02:39:08.973Z,23.40
2022-11-29T02:42:14.086Z,54.90
2022-11-29T02:44:45.218Z,55.90
2022-11-29T02:47:37.923Z,51.70
2022-11-29T02:50:38.787Z,57.30
2022-11-29T02:53:30.877Z,49.50
2022-11-29T02:56:01.915Z,60.90
2022-11-29T02:59:04.368Z,54.70
2022-11-29T03:02:07.081Z,49.10
2022-11-29T03:04:44.187Z,59.90
2022-11-29T03:07:35.353Z,60.40
2022-11-29T03:10:12.579Z,61.40
2022-11-29T03:12:44.745Z,28.00
2022-11-29T03:15:21.857Z,15.20
2022-11-29T03:18:14.584Z,55.40
2022-11-29T03:21:18.054Z,45.90
2022-11-29T03:23:51.447Z,58.00
2022-11-29T03:26:46.319Z,67.70
2022-11-29T03:29:58.842Z,41.30
2022-11-29T03:32:35.686Z,49.90
2022-11-29T03:35:36.780Z,71.00
2022-11-29T03:38:25.383Z,43.60
2022-11-29T03:41:02.903Z,22.90
2022-11-29T03:43:42.890Z,75.20
2022-11-29T03:46:35.218Z,29.50
2022-11-29T03:49:11.528Z,57.30
2022-11-29T03:52:00.279Z,23.60
2022-11-29T03:54:46.970Z,54.10
2022-11-29T03:57:20.747Z,41.80
2022-11-29T03:59:56.633Z,46.00
2022-11-29T04:02:58.776Z,26.00
2022-11-29T04:05:29.862Z,15.30
2022-11-29T04:08:21.085Z,20.10
2022-11-29T04:11:07.981Z,61.10
2022-11-29T04:14:03.864Z,49.30
2022-11-29T04:17:15.015Z,51.50
2022-11-29T04:20:01.640Z,43.90
2022-11-29T04:22:48.318Z,42.60
2022-11-29T04:25:17.214Z,16.80
2022-11-29T04:27:51.509Z,53.30
2022-11-29T04:30:27.157Z,33.90
2022-11-29T04:33:07.976Z,29.20
2022-11-29T04:35:56.368Z,39.90
2022-11-29T04:38:42.943Z,61.60
2022-11-29T04:41:54.347Z,49.60
2022-11-29T04:45:13.209Z,129.80
2022-11-29T04:48:08.764Z,45.70
2022-11-29T04:50:57.588Z,48.40
2022-11-29T04:53:53.960Z,55.90
2022-11-29T04:56:40.828Z,43.10
2022-11-29T04:59:42.790Z,76.40
2022-11-29T05:02:36.204Z,71.10
2022-11-29T05:05:29.495Z,62.10
2022-11-29T05:08:03.483Z,77.60
2022-11-29T05:10:59.683Z,39.00
2022-11-29T05:13:46.277Z,19.80
2022-11-29T05:16:40.201Z,11.50
2022-11-29T05:19:14.234Z,11.70
2022-11-29T05:21:53.740Z,98.70
2022-11-29T05:25:04.941Z,52.80
2022-11-29T05:27:49.947Z,64.50
2022-11-29T05:30:24.014Z,65.60
2022-11-29T05:33:28.056Z,54.60
2022-11-29T05:36:20.169Z,70.40
2022-11-29T05:38:57.379Z,64.00
2022-11-29T05:42:07.290Z,71.50
2022-11-29T05:44:46.411Z,31.80
2022-11-29T05:47:42.448Z,12.60
2022-11-29T05:50:18.822Z,51.90
2022-11-29T05:52:54.011Z,75.20
2022-11-29T05:55:45.086Z,36.40
2022-11-29T05:58:47.300Z,73.80
2022-11-29T06:01:26.258Z,95.40
2022-11-29T06:04:21.472Z,65.70
2022-11-29T06:06:55.617Z,71.40
2022-11-29T06:09:28.984Z,86.50
2022-11-29T06:12:35.848Z,90.50
2022-11-29T06:15:31.976Z,85.90
2022-11-29T06:18:25.415Z,42.20
2022-11-29T06:21:00.214Z,79.30
2022-11-29T06:23:47.275Z,55.70
2022-11-29T06:26:24.306Z,139.20
2022-11-29T06:29:19.191Z,106.30
2022-11-29T06:31:57.978Z,117.30
2022-11-29T06:35:03.339Z,82.40
2022-11-29T06:37:39.939Z,34.90
2022-11-29T06:40:16.056Z,33.50
2022-11-29T06:42:44.317Z,33.10
2022-11-29T06:45:14.696Z,84.10
2022-11-29T06:47:49.528Z,113.40
2022-11-29T06:50:41.211Z,101.70
2022-11-29T06:53:33.023Z,59.50
2022-11-29T06:56:19.576Z,33.80
2022-11-29T06:59:00.223Z,123.60
2022-11-29T07:02:21.108Z,126.80
2022-11-29T07:05:01.040Z,90.60
2022-11-29T07:07:29.372Z,101.50
2022-11-29T07:10:00.921Z,79.10
2022-11-29T07:12:29.212Z,20.00
2022-11-29T07:14:57.753Z,136.10
2022-11-29T07:17:44.447Z,156.30
2022-11-29T07:20:30.565Z,161.50
2022-11-29T07:23:17.000Z,75.80
2022-11-29T07:26:08.811Z,44.30
2022-11-29T07:29:06.018Z,104.40
2022-11-29T07:31:52.740Z,73.40
2022-11-29T07:34:47.745Z,85.90
2022-11-29T07:37:18.790Z,131.40
2022-11-29T07:39:59.326Z,122.00
2022-11-29T07:42:54.895Z,123.50
2022-11-29T07:45:32.076Z,105.70
2022-11-29T07:48:00.537Z,98.70
2022-11-29T07:50:29.945Z,88.60
2022-11-29T07:52:59.204Z,37.80
2022-11-29T07:55:27.708Z,14.00
2022-11-29T07:57:56.127Z,31.40
2022-11-29T08:00:24.406Z,29.10
2022-11-29T08:02:52.523Z,61.40
2022-11-29T08:05:20.854Z,22.00
2022-11-29T08:07:49.445Z,29.50
2022-11-29T08:10:17.940Z,23.20
2022-11-29T08:12:51.475Z,78.00
2022-11-29T08:15:21.360Z,63.10
2022-11-29T08:17:49.705Z,51.40
2022-11-29T08:20:17.951Z,62.30
2022-11-29T08:22:53.119Z,126.60
2022-11-29T08:25:21.130Z,153.90
2022-11-29T08:27:49.091Z,175.70
2022-11-29T08:30:19.000Z,132.60
2022-11-29T08:32:51.253Z,129.10
2022-11-29T08:37:50.345Z,114.60
2022-11-29T08:40:18.601Z,161.40
2022-11-29T08:42:46.697Z,146.30
2022-11-29T08:45:17.627Z,139.80
2022-11-29T08:47:45.918Z,141.50
2022-11-29T08:50:16.709Z,90.00
2022-11-29T08:53:06.465Z,68.50
2022-11-29T08:55:37.726Z,48.70
2022-11-29T08:58:09.535Z,56.00
2022-11-29T09:00:38.282Z,127.10
2022-11-29T09:03:26.574Z,144.60
2022-11-29T09:05:57.734Z,128.50
2022-11-29T09:08:25.926Z,121.30
2022-11-29T09:10:55.158Z,112.90
2022-11-29T09:13:23.449Z,122.00
2022-11-29T09:15:52.191Z,99.80
2022-11-29T09:18:20.219Z,113.50
2022-11-29T09:20:48.603Z,102.80
2022-11-29T09:23:17.026Z,51.70
2022-11-29T09:25:49.839Z,46.50
2022-11-29T09:28:19.029Z,56.50
2022-11-29T09:30:47.246Z,41.10
2022-11-29T09:33:15.189Z,45.50
2022-11-29T09:35:43.240Z,33.80
2022-11-29T09:38:14.573Z,27.20
2022-11-29T09:40:50.085Z,64.20
2022-11-29T09:43:27.150Z,68.80
2022-11-29T09:46:16.321Z,44.20
2022-11-29T09:48:44.360Z,76.20
2022-11-29T09:51:28.113Z,69.40
2022-11-29T09:54:12.115Z,52.90
2022-11-29T09:56:47.339Z,51.50
2022-11-29T09:59:29.162Z,47.00
2022-11-29T10:02:20.873Z,41.60
2022-11-29T10:04:56.277Z,41.20
2022-11-29T10:07:32.924Z,35.90
2022-11-29T10:10:09.525Z,30.70
2022-11-29T10:12:52.486Z,26.60
2022-11-29T10:15:27.381Z,29.00
2022-11-29T10:18:21.090Z,22.90
2022-11-29T10:20:51.672Z,33.60
2022-11-29T10:23:24.426Z,28.60
2022-11-29T10:28:30.718Z,29.70
2022-11-29T10:31:16.235Z,26.00
2022-11-29T10:33:45.487Z,16.30
2022-11-29T10:36:27.017Z,29.30
2022-11-29T10:39:03.144Z,25.20
2022-11-29T10:41:31.835Z,27.90
2022-11-29T10:44:00.497Z,32.20
2022-11-29T10:46:33.681Z,18.30
2022-11-29T10:49:10.478Z,17.00
2022-11-29T10:51:39.221Z,16.10
2022-11-29T10:54:29.380Z,29.30
2022-11-29T10:57:00.096Z,20.80
2022-11-29T10:59:32.562Z,22.50
2022-11-29T11:02:02.134Z,18.00
2022-11-29T11:04:33.587Z,25.90
2022-11-29T11:07:04.515Z,23.40
2022-11-29T11:09:33.159Z,20.50
2022-11-29T11:12:05.995Z,26.50
2022-11-29T11:14:38.961Z,16.40
2022-11-29T11:17:21.154Z,27.80
2022-11-29T11:20:01.482Z,20.70
2022-11-29T11:22:32.775Z,15.20
2022-11-29T11:25:06.141Z,17.50
2022-11-29T11:27:37.296Z,20.10
2022-11-29T11:30:07.512Z,20.90
2022-11-29T11:32:35.499Z,20.60
2022-11-29T11:35:23.534Z,19.90
2022-11-29T11:37:57.678Z,21.30
2022-11-29T11:40:30.541Z,19.30
2022-11-29T11:43:02.248Z,18.50
2022-11-29T11:45:35.525Z,20.90
2022-11-29T11:48:12.849Z,16.10
2022-11-29T11:50:43.566Z,17.00
2022-11-29T11:53:35.890Z,17.30
2022-11-29T11:56:10.651Z,18.50
2022-11-29T11:58:44.635Z,16.60
2022-11-29T12:01:12.600Z,21.40
2022-11-29T12:03:48.024Z,16.70
2022-11-29T12:06:38.108Z,23.00
2022-11-29T12:09:09.959Z,13.20
2022-11-29T12:12:00.226Z,49.80
2022-11-29T12:14:57.402Z,214.50
2022-11-29T12:17:35.618Z,66.10
2022-11-29T12:20:15.929Z,19.70
2022-11-29T12:22:57.296Z,21.10
2022-11-29T12:25:34.524Z,17.20
2022-11-29T12:28:04.105Z,21.70
2022-11-29T12:30:33.303Z,14.20
2022-11-29T12:33:25.426Z,20.60
2022-11-29T12:36:06.942Z,19.80
2022-11-29T12:39:04.011Z,20.60
2022-11-29T12:41:55.290Z,20.90
2022-11-29T12:45:00.849Z,17.70
2022-11-29T12:48:02.441Z,15.80
2022-11-29T12:50:43.446Z,16.60
2022-11-29T12:53:24.003Z,26.90
2022-11-29T12:56:11.153Z,11.50
2022-11-29T12:58:59.924Z,14.20
2022-11-29T13:01:43.088Z,20.20
2022-11-29T13:04:25.419Z,15.90
2022-11-29T13:07:11.129Z,14.50
2022-11-29T13:10:17.808Z,15.70
2022-11-29T13:12:54.042Z,15.30
2022-11-29T13:15:45.930Z,24.10
2022-11-29T13:18:33.786Z,12.30
2022-11-29T13:21:11.776Z,30.00
2022-11-29T13:26:40.244Z,26.50
2022-11-29T13:29:15.000Z,18.30
2022-11-29T13:31:45.843Z,14.10
2022-11-29T13:34:27.171Z,14.70
2022-11-29T13:37:33.541Z,10.10
2022-11-29T13:40:21.967Z,13.30
2022-11-29T13:43:30.334Z,16.50
2022-11-29T13:46:16.408Z,14.20
2022-11-29T13:48:50.873Z,29.80
2022-11-29T13:51:41.256Z,28.00
2022-11-29T13:54:32.361Z,23.50
2022-11-29T13:57:06.310Z,22.30
2022-11-29T13:59:44.140Z,22.60
2022-11-29T14:02:28.968Z,16.70
2022-11-29T14:04:57.277Z,20.00
2022-11-29T14:07:25.621Z,19.10
2022-11-29T14:10:04.294Z,15.10
2022-11-29T14:12:43.203Z,24.90
2022-11-29T14:15:11.154Z,19.30
2022-11-29T14:17:51.574Z,13.10
2022-11-29T14:20:25.435Z,10.00
2022-11-29T14:23:05.570Z,16.40
2022-11-29T14:25:52.702Z,28.10
2022-11-29T14:28:21.462Z,28.80
2022-11-29T14:30:58.434Z,34.50
2022-11-29T14:33:55.527Z,26.40
2022-11-29T14:36:54.796Z,31.50
2022-11-29T14:39:47.159Z,32.10
2022-11-29T14:42:20.867Z,27.90
2022-11-29T14:44:53.373Z,22.10
2022-11-29T14:47:31.690Z,40.40
2022-11-29T14:50:04.272Z,19.00
2022-11-29T14:55:24.997Z,25.10
2022-11-29T14:57:54.744Z,25.90
2022-11-29T15:00:27.081Z,40.50
2022-11-29T15:03:00.983Z,62.40
2022-11-29T15:05:37.171Z,137.10
2022-11-29T15:08:46.478Z,248.50
2022-11-29T15:11:37.667Z,214.00
2022-11-29T15:14:16.407Z,85.40
2022-11-29T15:17:13.974Z,82.10
2022-11-29T15:20:03.783Z,41.10
2022-11-29T15:22:58.570Z,54.10
2022-11-29T15:25:33.363Z,66.60
2022-11-29T15:28:04.456Z,53.60
2022-11-29T15:30:42.922Z,78.20
2022-11-29T15:33:25.642Z,72.70
2022-11-29T15:35:56.975Z,94.30
2022-11-29T15:38:25.506Z,65.40
2022-11-29T15:40:55.324Z,53.50
2022-11-29T15:43:37.832Z,49.10
2022-11-29T15:46:06.580Z,21.60
2022-11-29T15:48:35.041Z,47.70
2022-11-29T15:51:06.373Z,57.90
2022-11-29T15:53:49.601Z,61.20
2022-11-29T15:56:36.161Z,49.50
2022-11-29T15:59:15.186Z,49.40
2022-11-29T16:01:46.872Z,44.50
2022-11-29T16:04:20.629Z,69.50
2022-11-29T16:06:49.916Z,63.50
2022-11-29T16:09:27.957Z,69.50
2022-11-29T16:11:57.503Z,62.40
2022-11-29T16:14:30.762Z,63.40
2022-11-29T16:17:01.452Z,61.00
2022-11-29T16:19:37.030Z,79.30
2022-11-29T16:22:16.188Z,79.10
2022-11-29T16:25:07.006Z,55.00
2022-11-29T16:27:36.505Z,100.80
2022-11-29T16:30:05.741Z,94.20
2022-11-29T16:32:42.644Z,59.10
2022-11-29T16:35:26.407Z,53.90
2022-11-29T16:37:56.758Z,58.10
2022-11-29T16:40:28.507Z,86.60
2022-11-29T16:43:41.154Z,95.20
2022-11-29T16:46:21.491Z,56.60
2022-11-29T16:48:50.981Z,66.80
2022-11-29T16:51:26.271Z,52.40
2022-11-29T16:53:55.953Z,33.70
2022-11-29T16:56:27.613Z,44.90
2022-11-29T16:59:20.661Z,61.90
2022-11-29T17:01:49.011Z,63.50
2022-11-29T17:04:23.808Z,61.30
2022-11-29T17:06:55.036Z,65.40
2022-11-29T17:09:28.978Z,59.20
2022-11-29T17:12:01.186Z,68.40
2022-11-29T17:14:30.321Z,69.40
2022-11-29T17:17:00.940Z,42.80
2022-11-29T17:19:30.385Z,34.50
2022-11-29T17:21:58.842Z,41.60
2022-11-29T17:24:26.951Z,43.10
2022-11-29T17:26:55.214Z,57.70
2022-11-29T17:29:23.942Z,59.60
2022-11-29T17:31:53.301Z,63.10
2022-11-29T17:34:21.779Z,37.50
2022-11-29T17:36:52.388Z,36.30
2022-11-29T17:39:21.740Z,69.80
2022-11-29T17:41:49.917Z,69.90
2022-11-29T17:44:18.211Z,64.60
2022-11-29T17:46:46.469Z,67.40
2022-11-29T17:49:14.622Z,75.70
2022-11-29T17:51:51.659Z,46.10
2022-11-29T17:54:22.068Z,79.80
2022-11-29T17:56:50.592Z,96.90
2022-11-29T17:59:18.855Z,143.90
2022-11-29T18:01:50.070Z,111.40
2022-11-29T18:04:18.446Z,106.80
2022-11-29T18:06:50.182Z,107.30
2022-11-29T18:09:20.044Z,109.20
2022-11-29T18:11:50.364Z,74.40
2022-11-29T18:14:24.064Z,94.30
2022-11-29T18:16:52.819Z,47.50
2022-11-29T18:19:22.537Z,29.20
2022-11-29T18:21:51.834Z,83.60
2022-11-29T18:24:20.012Z,84.10
2022-11-29T18:26:48.193Z,91.10
2022-11-29T18:29:16.591Z,63.30
2022-11-29T18:31:46.326Z,48.80
2022-11-29T18:34:15.390Z,61.20
2022-11-29T18:36:45.978Z,43.90
2022-11-29T18:39:16.849Z,128.40
2022-11-29T18:41:48.652Z,112.10
2022-11-29T18:44:20.267Z,115.80
2022-11-29T18:46:49.209Z,71.90
2022-11-29T18:49:18.153Z,73.80
2022-11-29T18:51:47.588Z,92.50
2022-11-29T18:54:17.913Z,101.40
2022-11-29T18:56:46.653Z,73.30
2022-11-29T18:59:17.528Z,46.90
2022-11-29T19:01:48.057Z,104.30
2022-11-29T19:04:19.724Z,83.50
2022-11-29T19:06:48.204Z,76.60
2022-11-29T19:09:19.369Z,132.20
2022-11-29T19:11:49.580Z,120.90
2022-11-29T19:14:18.661Z,95.30
2022-11-29T19:16:49.166Z,123.20
2022-11-29T19:19:19.158Z,94.30
2022-11-29T19:21:47.855Z,54.70
2022-11-29T19:24:18.194Z,51.70
2022-11-29T19:26:49.777Z,121.80
2022-11-29T19:29:18.054Z,128.00
2022-11-29T19:31:46.054Z,113.00
2022-11-29T19:34:14.487Z,117.40
2022-11-29T19:36:43.953Z,112.70
2022-11-29T19:39:17.557Z,83.20
2022-11-29T19:41:47.620Z,83.40
2022-11-29T19:44:15.725Z,77.60
2022-11-29T19:46:47.036Z,86.30
2022-11-29T19:49:15.267Z,84.40
2022-11-29T19:51:44.565Z,41.10
2022-11-29T19:54:12.823Z,40.40
2022-11-29T19:56:41.099Z,50.80
2022-11-29T22:02:11.975Z,98.30
2022-11-29T22:21:35.148Z,102.60
2022-11-29T22:24:03.231Z,65.60
2022-11-29T22:26:31.398Z,46.50
2022-11-29T22:28:59.649Z,37.70
2022-11-29T22:31:27.729Z,87.10
2022-11-29T22:33:57.214Z,86.30
2022-11-29T22:36:26.406Z,80.00
2022-11-29T22:38:54.599Z,80.00
2022-11-29T22:41:22.966Z,81.70
2022-11-29T22:43:51.354Z,99.10
2022-11-29T22:46:24.876Z,91.00
2022-11-29T22:48:55.670Z,90.80
2022-11-29T22:51:30.617Z,84.90
2022-11-29T22:54:01.265Z,94.20
2022-11-29T22:56:32.372Z,84.30
2022-11-29T22:59:00.814Z,83.80
2022-11-29T23:01:31.135Z,96.00
2022-11-29T23:04:04.019Z,87.80
2022-11-29T23:06:34.380Z,69.80
2022-11-29T23:09:10.787Z,23.80
2022-11-29T23:11:38.877Z,30.90
2022-11-29T23:14:07.108Z,29.60
2022-11-29T23:16:35.139Z,23.40
2022-11-29T23:19:03.757Z,18.80
2022-11-29T23:21:37.657Z,23.30
2022-11-29T23:24:06.452Z,43.40
2022-11-29T23:26:39.026Z,71.30
2022-11-29T23:29:10.791Z,34.20
2022-11-29T23:31:39.714Z,56.10
2022-11-29T23:34:08.398Z,86.20
2022-11-29T23:36:36.478Z,93.60
2022-11-29T23:39:08.151Z,80.90
2022-11-29T23:41:36.988Z,87.50
2022-11-29T23:44:06.028Z,83.30
2022-11-29T23:46:35.528Z,81.00
2022-11-29T23:49:04.180Z,71.20
2022-11-29T23:51:32.419Z,78.60
2022-11-29T23:54:00.518Z,85.70
2022-11-29T23:56:28.917Z,94.10
2022-11-29T23:58:57.920Z,67.40
